Time;durP1;ratioP1;P1;durP2;ratioP2;P2;SDS_P1;SDS_P2;PMS_P1;PMS_P2;Temp;Humidity;BMP_temperature;BMP_pressure;BME280_temperature;BME280_humidity;BME280_pressure;Samples;Min_cycle;Max_cycle;Signal;HPM_P1;HPM_P2
2021/06/13 00:03:47;;;;;;;3.42;1.83;;;21.40;59.60;;;;;;20871165;28;20410;-74
2021/06/13 00:13:49;;;;;;;3.13;1.88;;;21.40;59.70;;;;;;20854057;28;20045;-74
2021/06/13 00:23:49;;;;;;;6.43;2.55;;;21.30;59.60;;;;;;20870537;28;20114;-73
2021/06/13 00:33:51;;;;;;;2.42;1.48;;;21.40;59.70;;;;;;20869931;28;20053;-74
2021/06/13 00:43:51;;;;;;;5.28;1.88;;;21.30;59.60;;;;;;20853415;28;20035;-73
2021/06/13 00:53:52;;;;;;;4.00;1.92;;;21.30;59.50;;;;;;20871013;28;20041;-74
2021/06/13 01:03:55;;;;;;;5.05;2.10;;;21.20;59.40;;;;;;20868419;28;20055;-75
2021/06/13 01:14:08;;;;;;;3.88;1.40;;;21.20;59.40;;;;;;20900377;28;20037;-75
2021/06/13 01:24:21;;;;;;;3.30;1.73;;;21.20;59.30;;;;;;20867968;28;20111;-74
2021/06/13 01:34:31;;;;;;;3.83;1.98;;;21.20;59.40;;;;;;20867042;28;20037;-74
2021/06/13 01:44:32;;;;;;;5.57;2.25;;;21.10;59.40;;;;;;20865342;28;20108;-74
2021/06/13 01:54:33;;;;;;;7.88;2.40;;;21.20;59.40;;;;;;20880841;28;20523;-74
2021/06/13 02:04:36;;;;;;;3.95;2.03;;;21.10;59.50;;;;;;20846962;28;20391;-74
2021/06/13 02:14:47;;;;;;;5.85;2.42;;;21.10;59.40;;;;;;20864806;28;20372;-74
2021/06/13 02:24:48;;;;;;;5.18;2.40;;;21.10;59.50;;;;;;20861641;28;20028;-74
2021/06/13 02:34:50;;;;;;;4.70;1.92;;;21.10;59.50;;;;;;20861267;28;20047;-74
2021/06/13 02:44:54;;;;;;;4.47;2.23;;;21.00;59.40;;;;;;20846956;28;20059;-74
2021/06/13 02:54:58;;;;;;;6.53;2.35;;;21.00;59.40;;;;;;20892453;28;20045;-74
2021/06/13 03:05:02;;;;;;;5.90;2.50;;;21.00;59.40;;;;;;20843596;28;20036;-74
2021/06/13 03:15:05;;;;;;;4.93;2.35;;;21.00;59.30;;;;;;20841858;28;20061;-74
2021/06/13 03:25:08;;;;;;;4.75;2.22;;;20.90;59.40;;;;;;20857367;28;20068;-74
2021/06/13 03:35:10;;;;;;;6.90;2.92;;;20.90;59.30;;;;;;20857289;28;20116;-74
2021/06/13 03:45:12;;;;;;;8.05;2.50;;;20.90;59.30;;;;;;20872386;28;20041;-74
2021/06/13 03:55:12;;;;;;;6.90;2.45;;;20.90;59.20;;;;;;20855156;28;20479;-74
2021/06/13 04:05:13;;;;;;;5.00;2.35;;;20.90;59.20;;;;;;20854709;28;20175;-74
2021/06/13 04:15:15;;;;;;;4.32;2.42;;;20.80;59.10;;;;;;20871067;28;20513;-74
2021/06/13 04:25:15;;;;;;;4.28;2.42;;;20.80;59.20;;;;;;20837739;28;20083;-74
2021/06/13 04:35:16;;;;;;;4.68;2.35;;;20.80;59.20;;;;;;20882631;28;20041;-74
2021/06/13 04:45:17;;;;;;;6.20;2.28;;;20.80;59.20;;;;;;20853693;28;20444;-74
2021/06/13 04:55:31;;;;;;;3.95;2.15;;;20.80;59.30;;;;;;20901633;28;20033;-74
2021/06/13 05:05:31;;;;;;;6.97;2.63;;;20.70;59.30;;;;;;20884251;28;20430;-73
2021/06/13 05:15:32;;;;;;;5.30;1.92;;;20.70;59.30;;;;;;20863322;28;20044;-75
2021/06/13 05:25:37;;;;;;;4.50;2.10;;;20.70;59.30;;;;;;20863722;28;20086;-74
2021/06/13 05:35:38;;;;;;;4.03;2.17;;;20.70;59.20;;;;;;20885448;28;20317;-74
2021/06/13 05:45:39;;;;;;;5.88;2.72;;;20.70;59.30;;;;;;20785873;28;20029;-73
2021/06/13 05:55:40;;;;;;;6.55;2.42;;;20.70;59.30;;;;;;20812571;28;20092;-73
2021/06/13 06:05:41;;;;;;;5.32;2.35;;;20.60;59.30;;;;;;20763438;28;20057;-73
2021/06/13 06:15:42;;;;;;;4.57;2.10;;;20.70;59.70;;;;;;20778744;28;20065;-73
2021/06/13 06:25:42;;;;;;;4.35;2.28;;;20.60;59.40;;;;;;20794207;28;20284;-72
2021/06/13 06:35:43;;;;;;;3.53;1.77;;;20.60;59.20;;;;;;20809729;28;20072;-73
2021/06/13 06:45:43;;;;;;;2.95;2.20;;;20.60;59.20;;;;;;20808766;28;20041;-73
2021/06/13 06:55:44;;;;;;;4.35;2.05;;;20.60;59.10;;;;;;20774952;28;20061;-71
2021/06/13 07:05:44;;;;;;;6.15;2.60;;;20.50;59.00;;;;;;20775856;28;20103;-76
2021/06/13 07:15:45;;;;;;;8.40;2.15;;;20.50;58.90;;;;;;20792961;28;20108;-75
2021/06/13 07:25:47;;;;;;;6.03;2.50;;;20.50;58.80;;;;;;20853544;28;20048;-76
2021/06/13 07:35:47;;;;;;;4.75;2.40;;;20.50;58.70;;;;;;20888913;28;20041;-75
2021/06/13 07:45:48;;;;;;;4.97;1.95;;;20.50;58.70;;;;;;20874651;28;20032;-78
2021/06/13 07:55:48;;;;;;;4.50;2.17;;;20.50;58.70;;;;;;20842287;28;20041;-78
2021/06/13 08:05:49;;;;;;;5.60;1.88;;;20.50;58.60;;;;;;20872836;28;20029;-74
2021/06/13 08:15:50;;;;;;;4.55;2.13;;;20.40;58.40;;;;;;20852273;28;20048;-77
2021/06/13 08:25:50;;;;;;;3.20;1.60;;;20.40;58.40;;;;;;20863840;28;20468;-75
2021/06/13 08:35:51;;;;;;;8.20;2.40;;;20.40;58.40;;;;;;20830973;28;20386;-76
2021/06/13 08:45:54;;;;;;;5.30;2.17;;;20.40;58.20;;;;;;20870277;28;20041;-76
2021/06/13 08:55:55;;;;;;;6.38;1.90;;;20.40;58.10;;;;;;20852647;28;20065;-76
2021/06/13 09:05:55;;;;;;;7.72;2.30;;;20.40;57.80;;;;;;20853915;28;20414;-80
2021/06/13 09:15:58;;;;;;;4.13;2.08;;;20.40;57.70;;;;;;21176458;22;20046;-80
2021/06/13 09:26:03;;;;;;;3.63;2.13;;;20.40;57.70;;;;;;20716284;28;20073;-78
2021/06/13 09:36:05;;;;;;;3.92;1.90;;;20.40;57.70;;;;;;20703509;28;20033;-79
2021/06/13 09:46:10;;;;;;;6.05;2.42;;;20.40;57.50;;;;;;20699320;28;20037;-78
2021/06/13 09:56:12;;;;;;;4.97;2.40;;;20.30;57.20;;;;;;20648778;28;20415;-78
2021/06/13 10:06:13;;;;;;;3.55;2.20;;;20.40;56.90;;;;;;20722024;28;20513;-80
2021/06/13 10:16:31;;;;;;;5.38;2.20;;;20.30;56.90;;;;;;20723223;28;20056;-79
2021/06/13 10:26:36;;;;;;;4.07;2.28;;;20.30;57.00;;;;;;20713986;28;20030;-80
2021/06/13 10:36:39;;;;;;;5.28;2.10;;;20.40;57.00;;;;;;20700283;28;20045;-77
2021/06/13 10:46:44;;;;;;;4.15;2.00;;;20.40;57.00;;;;;;20688425;28;20030;-77
2021/06/13 10:56:44;;;;;;;5.55;1.98;;;20.30;56.80;;;;;;20700905;28;20038;-80
2021/06/13 11:06:48;;;;;;;7.28;2.28;;;20.30;56.70;;;;;;20695657;28;20507;-79
2021/06/13 11:16:49;;;;;;;6.07;1.95;;;20.30;56.70;;;;;;20702727;28;20065;-80
2021/06/13 11:26:55;;;;;;;5.33;2.33;;;20.30;56.60;;;;;;20729189;28;20566;-80
2021/06/13 11:36:56;;;;;;;6.00;2.33;;;20.30;56.30;;;;;;20730464;28;20320;-80
2021/06/13 11:46:57;;;;;;;5.95;2.13;;;20.30;56.30;;;;;;20699788;28;20033;-81
2021/06/13 11:56:58;;;;;;;6.03;2.15;;;20.40;56.10;;;;;;20716119;28;20045;-80
2021/06/13 12:07:00;;;;;;;6.40;2.38;;;20.30;55.90;;;;;;20740414;28;20034;-79
2021/06/13 12:17:05;;;;;;;5.22;2.00;;;20.30;55.60;;;;;;20675584;28;20112;-79
2021/06/13 12:27:23;;;;;;;5.88;2.65;;;20.30;55.60;;;;;;20708961;28;20345;-79
2021/06/13 12:37:24;;;;;;;4.00;2.13;;;20.30;55.50;;;;;;20711364;28;20042;-79
2021/06/13 12:47:25;;;;;;;10.20;2.70;;;20.30;55.50;;;;;;20688955;28;20128;-79
2021/06/13 12:57:25;;;;;;;7.05;2.47;;;20.40;55.30;;;;;;20704922;28;20072;-78
2021/06/13 13:07:31;;;;;;;5.82;2.03;;;20.40;54.80;;;;;;20719141;28;20077;-75
2021/06/13 13:17:31;;;;;;;5.13;2.08;;;20.40;54.50;;;;;;20718205;28;20056;-78
2021/06/13 13:27:32;;;;;;;3.72;1.85;;;20.40;54.50;;;;;;20739006;28;20372;-77
2021/06/13 13:37:33;;;;;;;3.92;2.03;;;20.40;54.80;;;;;;20708406;28;20128;-79
2021/06/13 13:47:36;;;;;;;4.93;2.10;;;20.50;55.30;;;;;;20717295;28;20328;-77
2021/06/13 13:57:56;;;;;;;4.50;2.05;;;20.50;54.90;;;;;;20732904;28;20431;-77
2021/06/13 14:07:57;;;;;;;7.07;2.05;;;20.60;55.10;;;;;;20730212;28;20030;-76
2021/06/13 14:17:58;;;;;;;4.97;2.40;;;20.70;54.90;;;;;;20710466;28;20053;-75
2021/06/13 14:27:58;;;;;;;4.53;1.70;;;20.80;54.70;;;;;;20711248;28;20296;-75
2021/06/13 14:37:59;;;;;;;3.78;1.70;;;20.90;54.60;;;;;;20682538;28;20507;-75
2021/06/13 14:48:00;;;;;;;6.10;2.13;;;21.00;54.50;;;;;;20724469;28;20067;-75
2021/06/13 14:58:08;;;;;;;3.95;2.00;;;21.10;54.20;;;;;;20677185;28;20113;-74
2021/06/13 15:08:08;;;;;;;3.47;1.85;;;21.10;54.10;;;;;;20653136;28;20049;-78
2021/06/13 15:18:09;;;;;;;4.40;1.95;;;21.20;54.10;;;;;;20666025;28;20046;-75
2021/06/13 15:28:10;;;;;;;4.22;2.10;;;21.20;54.00;;;;;;20704707;28;20091;-75
2021/06/13 15:38:10;;;;;;;2.97;1.47;;;21.30;53.80;;;;;;20691321;28;20133;-79
2021/06/13 15:48:12;;;;;;;4.28;1.90;;;21.30;53.70;;;;;;20674525;28;20316;-76
2021/06/13 15:58:18;;;;;;;3.97;1.70;;;21.40;53.50;;;;;;20707984;28;20045;-82
2021/06/13 16:08:19;;;;;;;7.65;2.45;;;21.50;53.40;;;;;;20706131;28;20212;-77
2021/06/13 16:18:19;;;;;;;4.38;1.50;;;21.50;53.30;;;;;;20697117;28;20129;-80
2021/06/13 16:28:20;;;;;;;4.60;2.15;;;21.60;53.30;;;;;;20714398;28;20030;-78
2021/06/13 16:38:22;;;;;;;5.68;2.00;;;21.60;53.40;;;;;;20724517;28;20037;-78
2021/06/13 16:48:23;;;;;;;3.55;1.55;;;21.70;53.40;;;;;;20713017;28;20107;-81
2021/06/13 16:58:24;;;;;;;3.30;1.50;;;21.70;53.50;;;;;;20739217;28;20069;-77
2021/06/13 17:08:25;;;;;;;3.83;1.90;;;21.70;53.60;;;;;;20710495;28;20034;-77
2021/06/13 17:18:26;;;;;;;5.65;2.22;;;21.80;53.50;;;;;;20716732;28;20442;-75
2021/06/13 17:28:31;;;;;;;3.85;1.95;;;21.80;53.50;;;;;;20727167;28;20488;-75
2021/06/13 17:38:32;;;;;;;5.93;1.77;;;21.80;53.50;;;;;;20750808;28;20069;-74
2021/06/13 17:48:37;;;;;;;4.00;1.67;;;21.80;53.50;;;;;;20749342;28;20040;-74
2021/06/13 17:58:37;;;;;;;3.77;1.67;;;21.80;53.40;;;;;;20744650;28;20037;-74
2021/06/13 18:08:38;;;;;;;6.20;2.37;;;21.80;53.30;;;;;;20711497;28;20538;-74
2021/06/13 18:18:39;;;;;;;4.72;1.70;;;21.80;53.30;;;;;;20710223;28;20029;-75
2021/06/13 18:28:39;;;;;;;4.13;1.85;;;21.70;53.20;;;;;;20621153;28;20774;-75
2021/06/13 18:38:41;;;;;;;3.70;1.87;;;21.60;53.20;;;;;;20622787;28;20542;-75
2021/06/13 18:48:41;;;;;;;3.42;1.88;;;21.60;53.40;;;;;;20676219;28;20651;-75
2021/06/13 18:58:42;;;;;;;3.60;2.05;;;21.40;53.40;;;;;;20690364;28;20045;-75
2021/06/13 19:08:43;;;;;;;6.23;2.13;;;21.30;53.70;;;;;;20690489;28;20546;-75
2021/06/13 19:18:45;;;;;;;6.63;2.55;;;21.30;54.00;;;;;;20647302;28;20292;-75
2021/06/13 19:28:46;;;;;;;3.63;1.83;;;21.20;54.10;;;;;;20619973;28;20048;-74
2021/06/13 19:38:47;;;;;;;3.63;1.88;;;21.10;54.40;;;;;;20679722;28;20045;-74
2021/06/13 19:48:48;;;;;;;3.08;1.55;;;21.10;54.50;;;;;;20716347;28;20030;-75
2021/06/13 19:58:49;;;;;;;4.15;1.80;;;21.10;54.60;;;;;;20717853;28;20625;-74
2021/06/13 20:08:49;;;;;;;3.30;1.55;;;21.00;54.70;;;;;;20719202;28;20029;-73
2021/06/13 20:18:50;;;;;;;5.50;1.77;;;21.00;54.80;;;;;;20700981;28;20137;-74
2021/06/13 20:28:50;;;;;;;3.72;1.67;;;21.00;55.00;;;;;;20685899;28;20042;-74
2021/06/13 20:38:51;;;;;;;3.33;1.50;;;20.90;55.10;;;;;;20683824;28;20538;-74
2021/06/13 20:48:52;;;;;;;3.95;1.80;;;20.90;55.30;;;;;;20716665;28;20387;-74
2021/06/13 20:58:53;;;;;;;6.20;2.70;;;20.90;55.40;;;;;;20699758;28;20472;-75
2021/06/13 21:08:53;;;;;;;3.95;1.55;;;20.90;55.60;;;;;;20716353;28;20499;-75
2021/06/13 21:18:54;;;;;;;4.60;1.73;;;20.90;55.80;;;;;;20712684;28;20120;-75
2021/06/13 21:28:55;;;;;;;4.13;2.28;;;20.80;55.80;;;;;;20688952;28;20383;-75
2021/06/13 21:38:55;;;;;;;4.07;1.77;;;20.80;55.90;;;;;;20682812;28;20395;-75
2021/06/13 21:48:56;;;;;;;4.93;1.63;;;20.80;56.00;;;;;;20716359;28;20392;-75
2021/06/13 21:58:57;;;;;;;2.33;1.50;;;20.70;55.90;;;;;;20698321;28;20052;-75
2021/06/13 22:08:57;;;;;;;3.60;2.08;;;20.70;56.00;;;;;;20699312;28;20041;-75
2021/06/13 22:18:58;;;;;;;4.47;1.90;;;20.70;56.60;;;;;;20713852;28;20033;-75
2021/06/13 22:28:59;;;;;;;3.25;1.85;;;20.70;56.10;;;;;;20713901;28;20480;-75
2021/06/13 22:38:59;;;;;;;2.63;1.40;;;20.60;56.00;;;;;;20712295;28;20070;-74
2021/06/13 22:49:00;;;;;;;5.30;1.98;;;20.60;56.10;;;;;;20697330;28;20393;-75
2021/06/13 22:59:01;;;;;;;2.85;1.83;;;20.60;56.10;;;;;;20711135;28;20103;-75
2021/06/13 23:09:01;;;;;;;2.42;1.40;;;20.60;56.10;;;;;;20694687;28;20041;-75
2021/06/13 23:19:02;;;;;;;3.00;2.08;;;20.60;56.20;;;;;;20693103;28;20037;-75
2021/06/13 23:29:03;;;;;;;2.93;1.50;;;20.60;56.20;;;;;;20693390;28;20477;-75
2021/06/13 23:39:04;;;;;;;3.45;2.17;;;20.50;56.20;;;;;;20691180;28;20376;-75
2021/06/13 23:49:04;;;;;;;2.60;1.75;;;20.50;56.20;;;;;;20707198;28;20029;-75
2021/06/13 23:59:05;;;;;;;4.43;2.20;;;20.50;56.20;;;;;;20641347;28;20137;-76
